createdAt,value
2022-10-06T00:00:09.696Z,98879.75
2022-10-06T00:02:37.863Z,98877.63
2022-10-06T00:05:06.185Z,98881.09
2022-10-06T00:07:35.938Z,98884.56
2022-10-06T00:10:04.556Z,98880.56
2022-10-06T00:12:40.032Z,98881.34
2022-10-06T00:15:08.710Z,98874.22
2022-10-06T00:17:36.883Z,98880.06
2022-10-06T00:20:05.273Z,98876.06
2022-10-06T00:22:36.475Z,98868.69
2022-10-06T00:25:05.161Z,98868.44
2022-10-06T00:27:36.754Z,98879.25
2022-10-06T00:30:05.069Z,98880.81
2022-10-06T00:32:33.378Z,98878.22
2022-10-06T00:35:01.575Z,98883.47
2022-10-06T00:37:30.068Z,98892.50
2022-10-06T00:39:59.643Z,98889.31
2022-10-06T00:42:29.552Z,98884.28
2022-10-06T00:44:59.202Z,98885.59
2022-10-06T00:47:30.244Z,98887.72
2022-10-06T00:49:58.418Z,98877.94
2022-10-06T00:52:28.898Z,98882.44
2022-10-06T00:54:57.433Z,98882.69
2022-10-06T00:57:27.242Z,98882.44
2022-10-06T00:59:55.560Z,98884.00
2022-10-06T01:02:25.087Z,98879.25
2022-10-06T01:04:56.016Z,98871.59
2022-10-06T01:07:25.697Z,98889.84
2022-10-06T01:09:54.378Z,98886.16
2022-10-06T01:12:22.536Z,98890.63
2022-10-06T01:14:52.391Z,98882.44
2022-10-06T01:17:22.270Z,98878.16
2022-10-06T01:19:52.092Z,98883.44
2022-10-06T01:22:27.548Z,98885.84
2022-10-06T01:24:55.594Z,98888.25
2022-10-06T01:27:24.481Z,98889.81
2022-10-06T01:29:53.957Z,98886.91
2022-10-06T01:32:22.410Z,98881.38
2022-10-06T01:34:50.448Z,98889.31
2022-10-06T01:37:18.453Z,98877.16
2022-10-06T01:39:47.971Z,98866.84
2022-10-06T01:42:15.989Z,98885.34
2022-10-06T01:44:44.053Z,98876.63
2022-10-06T01:47:12.152Z,98879.25
2022-10-06T01:49:40.604Z,98873.44
2022-10-06T01:52:09.453Z,98872.94
2022-10-06T01:54:37.548Z,98875.59
2022-10-06T01:57:08.585Z,98887.19
2022-10-06T01:59:36.598Z,98884.00
2022-10-06T02:02:04.743Z,98881.16
2022-10-06T02:04:32.947Z,98878.78
2022-10-06T02:07:00.934Z,98877.22
2022-10-06T02:09:28.896Z,98877.25
2022-10-06T02:11:57.091Z,98879.63
2022-10-06T02:14:26.535Z,98865.34
2022-10-06T02:16:54.575Z,98862.16
2022-10-06T02:19:22.654Z,98862.44
2022-10-06T02:21:50.681Z,98869.31
2022-10-06T02:24:19.256Z,98866.16
2022-10-06T02:26:47.246Z,98869.84
2022-10-06T02:29:15.205Z,98875.66
2022-10-06T02:31:45.063Z,98874.88
2022-10-06T02:34:13.216Z,98873.81
2022-10-06T02:36:41.205Z,98886.28
2022-10-06T02:39:09.176Z,98891.56
2022-10-06T02:41:37.504Z,98893.44
2022-10-06T02:44:05.523Z,98895.78
2022-10-06T02:46:33.562Z,98899.25
2022-10-06T02:49:03.093Z,98905.63
2022-10-06T02:51:31.663Z,98894.75
2022-10-06T02:53:59.594Z,98888.13
2022-10-06T02:56:28.181Z,98897.41
2022-10-06T02:58:58.457Z,98901.09
2022-10-06T03:01:27.898Z,98910.63
2022-10-06T03:03:56.221Z,98906.94
2022-10-06T03:06:26.417Z,98898.47
2022-10-06T03:08:55.579Z,98909.84
2022-10-06T03:11:25.121Z,98906.41
2022-10-06T03:13:53.774Z,98904.28
2022-10-06T03:16:23.222Z,98905.88
2022-10-06T03:18:52.495Z,98904.81
2022-10-06T03:21:21.008Z,98905.88
2022-10-06T03:23:51.752Z,98897.41
2022-10-06T03:26:21.086Z,98895.28
2022-10-06T03:28:49.137Z,98898.44
2022-10-06T03:31:18.113Z,98906.41
2022-10-06T03:33:46.131Z,98898.44
2022-10-06T03:36:15.302Z,98895.28
2022-10-06T03:38:43.614Z,98898.19
2022-10-06T03:41:14.200Z,98903.75
2022-10-06T03:43:43.910Z,98906.69
2022-10-06T03:46:13.255Z,98901.91
2022-10-06T03:48:41.570Z,98913.81
2022-10-06T03:51:12.541Z,98908.25
2022-10-06T03:53:41.071Z,98907.22
2022-10-06T03:56:10.297Z,98910.63
2022-10-06T03:58:41.111Z,98913.53
2022-10-06T04:01:10.162Z,98914.09
2022-10-06T04:03:38.375Z,98913.28
2022-10-06T04:06:07.497Z,98911.44
2022-10-06T04:08:36.616Z,98911.69
2022-10-06T04:11:08.495Z,98915.41
2022-10-06T04:13:36.578Z,98908.78
2022-10-06T04:16:13.072Z,98914.63
2022-10-06T04:18:41.643Z,98913.28
2022-10-06T04:21:09.816Z,98913.81
2022-10-06T04:23:38.081Z,98911.16
2022-10-06T04:26:09.591Z,98914.34
2022-10-06T04:28:38.354Z,98920.16
2022-10-06T04:31:07.261Z,98925.47
2022-10-06T04:33:36.831Z,98921.22
2022-10-06T04:36:06.002Z,98929.69
2022-10-06T04:38:34.757Z,98929.97
2022-10-06T04:41:07.303Z,98928.88
2022-10-06T04:43:35.485Z,98924.69
2022-10-06T04:46:13.287Z,98924.66
2022-10-06T04:48:53.431Z,98931.78
2022-10-06T04:51:22.330Z,98932.88
2022-10-06T04:53:50.734Z,98934.44
2022-10-06T04:56:19.495Z,98924.66
2022-10-06T04:58:48.614Z,98927.00
2022-10-06T05:01:18.126Z,98931.75
2022-10-06T05:03:46.686Z,98939.19
2022-10-06T05:06:17.325Z,98939.72
2022-10-06T05:08:48.663Z,98942.38
2022-10-06T05:11:20.286Z,98939.19
2022-10-06T05:13:51.172Z,98936.78
2022-10-06T05:16:20.013Z,98943.69
2022-10-06T05:18:48.773Z,98941.31
2022-10-06T05:21:19.037Z,98942.38
2022-10-06T05:23:47.027Z,98938.63
2022-10-06T05:26:16.622Z,98942.31
2022-10-06T05:28:45.111Z,98939.38
2022-10-06T05:31:15.352Z,98943.88
2022-10-06T05:33:43.883Z,98947.88
2022-10-06T05:36:13.544Z,98946.03
2022-10-06T05:38:44.424Z,98938.56
2022-10-06T05:41:13.625Z,98942.28
2022-10-06T05:43:42.727Z,98951.81
2022-10-06T05:46:17.622Z,98947.03
2022-10-06T05:48:46.991Z,98948.63
2022-10-06T05:51:15.702Z,98947.03
2022-10-06T05:53:45.732Z,98946.44
2022-10-06T05:56:15.323Z,98952.75
2022-10-06T05:58:44.417Z,98947.09
2022-10-06T06:01:13.789Z,98942.78
2022-10-06T06:03:43.469Z,98951.72
2022-10-06T06:06:19.108Z,98954.63
2022-10-06T06:08:48.941Z,98952.78
2022-10-06T06:11:17.407Z,98949.34
2022-10-06T06:13:46.377Z,98957.03
2022-10-06T06:16:14.137Z,98942.44
2022-10-06T06:18:42.950Z,98954.59
2022-10-06T06:21:11.984Z,98949.81
2022-10-06T06:23:41.143Z,98947.66
2022-10-06T06:26:12.268Z,98950.34
2022-10-06T06:28:41.821Z,98946.09
2022-10-06T06:31:10.895Z,98960.69
2022-10-06T06:33:40.152Z,98957.78
2022-10-06T06:36:13.924Z,98960.75
2022-10-06T06:38:42.314Z,98963.97
2022-10-06T06:41:19.072Z,98961.25
2022-10-06T06:43:47.655Z,98960.13
2022-10-06T06:46:18.968Z,98960.38
2022-10-06T06:48:47.965Z,98953.28
2022-10-06T06:51:17.524Z,98954.41
2022-10-06T06:53:46.126Z,98953.31
2022-10-06T06:56:15.251Z,98947.16
2022-10-06T06:58:49.056Z,98946.81
2022-10-06T07:01:18.412Z,98953.44
2022-10-06T07:12:15.260Z,98954.13
2022-10-06T07:14:59.656Z,98957.81
2022-10-06T07:24:03.565Z,98949.66
2022-10-06T07:26:32.429Z,98953.94
2022-10-06T07:29:01.830Z,98948.19
2022-10-06T07:31:33.635Z,98961.16
2022-10-06T07:34:02.932Z,98964.13
2022-10-06T07:36:31.565Z,98959.41
2022-10-06T07:38:59.713Z,98955.97
2022-10-06T07:41:28.606Z,98952.75
2022-10-06T07:43:56.648Z,98947.16
2022-10-06T07:46:25.987Z,98945.66
2022-10-06T07:48:56.435Z,98946.72
2022-10-06T07:57:24.195Z,98945.22
2022-10-06T08:00:03.480Z,98937.94
2022-10-06T08:05:23.895Z,98939.88
2022-10-06T08:14:07.880Z,98935.88
2022-10-06T08:16:42.504Z,98928.03
2022-10-06T08:25:05.153Z,98947.66
2022-10-06T08:33:25.120Z,98927.13
2022-10-06T08:47:50.872Z,98942.19
2022-10-06T09:02:45.722Z,98953.88
2022-10-06T09:05:15.044Z,98952.56
2022-10-06T09:07:48.726Z,98952.06
2022-10-06T09:10:28.199Z,98965.50
2022-10-06T09:12:57.453Z,98954.53
2022-10-06T09:15:31.269Z,98955.72
2022-10-06T09:18:02.894Z,98956.97
2022-10-06T09:20:34.214Z,98961.94
2022-10-06T09:23:03.262Z,98957.94
2022-10-06T09:25:31.378Z,98952.25
2022-10-06T09:28:00.457Z,98953.50
2022-10-06T09:30:28.864Z,98947.72
2022-10-06T09:33:00.358Z,98947.88
2022-10-06T09:35:30.557Z,98948.59
2022-10-06T09:38:00.691Z,98948.31
2022-10-06T09:40:38.333Z,98940.38
2022-10-06T09:43:16.690Z,98943.50
2022-10-06T09:45:44.770Z,98941.47
2022-10-06T09:48:13.674Z,98946.06
2022-10-06T09:50:43.192Z,98948.00
2022-10-06T09:53:18.797Z,98942.22
2022-10-06T09:55:54.767Z,98936.25
2022-10-06T09:58:24.781Z,98938.84
2022-10-06T10:00:57.227Z,98935.91
2022-10-06T10:03:27.449Z,98928.63
2022-10-06T10:05:57.087Z,98926.44
2022-10-06T10:08:26.285Z,98929.16
2022-10-06T10:11:33.421Z,98920.53
2022-10-06T10:14:01.636Z,98923.31
2022-10-06T10:16:34.857Z,98938.56
2022-10-06T10:19:04.442Z,98931.75
2022-10-06T10:21:34.760Z,98935.72
2022-10-06T10:24:05.303Z,98937.84
2022-10-06T10:26:45.883Z,98924.50
2022-10-06T10:29:33.133Z,98934.78
2022-10-06T10:32:05.536Z,98929.72
2022-10-06T10:34:43.745Z,98929.50
2022-10-06T10:37:15.304Z,98928.56
2022-10-06T10:39:45.714Z,98939.94
2022-10-06T10:42:16.738Z,98938.56
2022-10-06T10:44:49.940Z,98947.53
2022-10-06T10:47:21.969Z,98952.06
2022-10-06T10:49:54.257Z,98947.06
2022-10-06T10:52:27.562Z,98946.72
2022-10-06T10:55:03.745Z,98948.06
2022-10-06T10:57:37.293Z,98943.78
2022-10-06T11:00:07.719Z,98952.91
2022-10-06T11:02:38.429Z,98949.50
2022-10-06T11:05:13.796Z,98944.16
2022-10-06T11:07:46.825Z,98947.38
2022-10-06T11:10:18.905Z,98944.59
2022-10-06T11:12:59.143Z,98937.06
2022-10-06T11:15:33.018Z,98937.56
2022-10-06T11:18:06.125Z,98951.72
2022-10-06T11:20:42.938Z,98939.25
2022-10-06T11:23:25.642Z,98942.63
2022-10-06T11:25:58.608Z,98945.25
2022-10-06T11:28:32.368Z,98943.56
2022-10-06T11:31:02.618Z,98942.28
2022-10-06T11:33:34.085Z,98937.19
2022-10-06T11:36:03.783Z,98949.91
2022-10-06T11:38:37.876Z,98951.31
2022-10-06T11:41:10.392Z,98936.84
2022-10-06T11:43:42.437Z,98938.28
2022-10-06T11:46:18.339Z,98930.06
2022-10-06T11:48:46.905Z,98929.75
2022-10-06T11:51:31.118Z,98931.84
2022-10-06T11:54:00.703Z,98925.59
2022-10-06T11:56:46.834Z,98925.19
2022-10-06T11:59:31.477Z,98922.41
2022-10-06T12:02:02.679Z,98926.88
2022-10-06T12:04:30.753Z,98919.16
2022-10-06T12:07:02.191Z,98926.28
2022-10-06T12:09:33.073Z,98926.28
2022-10-06T12:12:01.864Z,98934.56
2022-10-06T12:17:27.549Z,98929.63
2022-10-06T12:19:58.936Z,98922.41
2022-10-06T12:22:30.164Z,98926.38
2022-10-06T12:25:05.292Z,98925.00
2022-10-06T12:27:39.501Z,98925.41
2022-10-06T12:30:17.886Z,98918.00
2022-10-06T12:32:54.305Z,98929.06
2022-10-06T12:35:40.191Z,98927.34
2022-10-06T12:38:28.698Z,98922.00
2022-10-06T12:40:59.742Z,98914.22
2022-10-06T12:43:29.291Z,98908.19
2022-10-06T12:45:59.488Z,98912.91
2022-10-06T12:48:31.243Z,98910.13
2022-10-06T12:51:03.345Z,98899.06
2022-10-06T12:53:34.251Z,98905.84
2022-10-06T12:56:05.105Z,98905.84
2022-10-06T12:58:34.182Z,98899.34
2022-10-06T13:01:02.649Z,98913.19
2022-10-06T13:03:31.034Z,98908.34
2022-10-06T13:06:00.042Z,98911.81
2022-10-06T13:08:29.492Z,98916.94
2022-10-06T13:11:12.243Z,98909.44
2022-10-06T13:13:46.806Z,98918.31
2022-10-06T13:16:14.931Z,98917.91
2022-10-06T13:18:43.128Z,98919.31
2022-10-06T13:21:14.098Z,98920.69
2022-10-06T13:23:42.093Z,98911.00
2022-10-06T13:26:19.317Z,98902.59
2022-10-06T13:28:49.724Z,98906.03
2022-10-06T13:31:22.509Z,98897.72
2022-10-06T13:33:52.439Z,98895.44
2022-10-06T13:36:23.657Z,98891.78
2022-10-06T13:38:56.516Z,98888.75
2022-10-06T13:41:30.157Z,98892.13
2022-10-06T13:44:01.491Z,98897.06
2022-10-06T13:46:31.037Z,98872.94
2022-10-06T13:49:03.545Z,98904.25
2022-10-06T13:51:32.342Z,98900.44
2022-10-06T13:54:02.273Z,98894.09
2022-10-06T13:56:35.954Z,98906.25
2022-10-06T13:59:27.467Z,98906.75
2022-10-06T14:01:55.693Z,98904.09
2022-10-06T14:04:23.982Z,98909.00
2022-10-06T14:06:53.484Z,98911.75
2022-10-06T14:09:24.027Z,98914.91
2022-10-06T14:11:52.669Z,98910.09
2022-10-06T14:14:22.277Z,98906.81
2022-10-06T14:16:51.816Z,98899.41
2022-10-06T14:19:34.234Z,98903.44
2022-10-06T14:22:02.643Z,98903.09
2022-10-06T14:24:34.203Z,98907.84
2022-10-06T14:27:02.805Z,98903.78
2022-10-06T14:29:34.292Z,98899.91
2022-10-06T14:32:09.083Z,98897.56
2022-10-06T14:34:37.068Z,98902.59
2022-10-06T14:37:05.026Z,98901.59
2022-10-06T14:39:33.030Z,98910.88
2022-10-06T14:42:01.086Z,98900.22
2022-10-06T14:44:29.301Z,98896.94
2022-10-06T14:46:59.101Z,98906.00
2022-10-06T14:49:27.183Z,98905.72
2022-10-06T14:51:56.050Z,98914.50
2022-10-06T14:54:24.416Z,98914.72
2022-10-06T14:56:53.438Z,98912.34
2022-10-06T14:59:22.094Z,98923.88
2022-10-06T15:01:50.167Z,98910.25
2022-10-06T15:04:20.593Z,98913.44
2022-10-06T15:07:06.315Z,98916.03
2022-10-06T15:09:34.530Z,98909.88
2022-10-06T15:12:03.234Z,98917.38
2022-10-06T15:14:31.320Z,98909.09
2022-10-06T15:17:00.498Z,98908.09
2022-10-06T15:19:30.040Z,98906.81
2022-10-06T15:21:58.293Z,98896.41
2022-10-06T15:24:26.378Z,98898.38
2022-10-06T15:27:11.689Z,98900.78
2022-10-06T15:29:39.888Z,98903.91
2022-10-06T15:32:08.381Z,98903.91
2022-10-06T15:34:38.277Z,98909.84
2022-10-06T15:37:06.824Z,98909.34
2022-10-06T15:39:37.249Z,98912.28
2022-10-06T15:42:06.374Z,98916.91
2022-10-06T15:44:35.790Z,98916.03
2022-10-06T15:47:05.503Z,98904.09
2022-10-06T15:49:38.279Z,98906.75
2022-10-06T15:52:08.411Z,98906.94
2022-10-06T15:54:38.063Z,98909.91
2022-10-06T15:57:08.776Z,98904.66
2022-10-06T15:59:37.264Z,98900.19
2022-10-06T16:02:07.879Z,98899.78
2022-10-06T16:04:48.757Z,98890.13
2022-10-06T16:07:19.195Z,98904.25
2022-10-06T16:09:47.993Z,98896.25
2022-10-06T16:12:17.590Z,98893.00
2022-10-06T16:14:45.936Z,98889.03
2022-10-06T16:17:14.213Z,98906.34
2022-10-06T16:19:42.309Z,98899.13
2022-10-06T16:22:11.652Z,98891.13
2022-10-06T16:24:41.339Z,98879.91
2022-10-06T16:27:11.842Z,98876.41
2022-10-06T16:29:39.857Z,98878.75
2022-10-06T16:32:07.946Z,98883.00
2022-10-06T16:34:36.030Z,98896.13
2022-10-06T16:37:04.160Z,98889.63
2022-10-06T16:39:32.157Z,98890.94
2022-10-06T16:42:01.478Z,98895.75
2022-10-06T16:44:29.537Z,98886.69
2022-10-06T16:46:57.525Z,98897.59
2022-10-06T16:49:27.413Z,98882.94
2022-10-06T16:51:55.428Z,98891.19
2022-10-06T16:54:23.475Z,98884.59
2022-10-06T16:56:54.425Z,98879.75
2022-10-06T16:59:26.133Z,98881.72
2022-10-06T17:01:54.373Z,98887.56
2022-10-06T17:04:23.370Z,98881.50
2022-10-06T17:06:52.319Z,98890.28
2022-10-06T17:09:21.598Z,98884.66
2022-10-06T17:11:50.269Z,98889.00
2022-10-06T17:14:18.701Z,98870.63
2022-10-06T17:16:49.413Z,98872.44
2022-10-06T17:19:18.609Z,98879.81
2022-10-06T17:21:49.527Z,98873.00
2022-10-06T17:24:19.941Z,98883.38
2022-10-06T17:26:48.549Z,98872.78
2022-10-06T17:29:18.972Z,98875.94
2022-10-06T17:31:49.681Z,98868.81
2022-10-06T17:34:21.153Z,98862.63
2022-10-06T17:36:51.910Z,98856.44
2022-10-06T17:39:21.717Z,98843.41
2022-10-06T17:41:50.641Z,98853.84
2022-10-06T17:44:23.163Z,98848.81
2022-10-06T17:46:56.581Z,98848.91
2022-10-06T17:49:25.370Z,98847.94
2022-10-06T17:51:54.023Z,98839.72
2022-10-06T17:54:23.512Z,98836.78
2022-10-06T17:56:52.549Z,98835.91
2022-10-06T17:59:22.336Z,98833.25
2022-10-06T18:01:51.914Z,98833.44
2022-10-06T18:04:21.683Z,98835.84
2022-10-06T18:06:49.744Z,98828.22
2022-10-06T18:09:18.512Z,98826.53
2022-10-06T18:11:48.559Z,98824.19
2022-10-06T18:14:17.371Z,98823.47
2022-10-06T18:16:46.685Z,98815.56
2022-10-06T18:19:16.193Z,98820.53
2022-10-06T18:21:47.738Z,98810.56
2022-10-06T18:24:17.328Z,98808.47
2022-10-06T18:26:48.235Z,98806.16
2022-10-06T18:29:16.875Z,98796.75
2022-10-06T18:31:45.157Z,98800.19
2022-10-06T18:37:04.078Z,98798.09
2022-10-06T18:39:33.635Z,98797.69
2022-10-06T18:42:05.433Z,98796.59
2022-10-06T18:44:53.113Z,98801.13
2022-10-06T18:47:38.933Z,98806.22
2022-10-06T18:50:07.629Z,98802.28
2022-10-06T18:52:37.032Z,98797.09
2022-10-06T18:55:05.219Z,98799.91
2022-10-06T18:57:33.363Z,98806.94
2022-10-06T19:00:01.310Z,98796.22
2022-10-06T19:02:32.381Z,98801.28
2022-10-06T19:05:00.504Z,98801.84
2022-10-06T19:07:31.024Z,98797.31
2022-10-06T19:10:00.519Z,98801.31
2022-10-06T19:12:28.600Z,98802.66
2022-10-06T19:14:57.879Z,98800.56
2022-10-06T19:17:26.111Z,98798.56
2022-10-06T19:19:55.471Z,98796.41
2022-10-06T19:22:24.933Z,98803.03
2022-10-06T19:24:52.906Z,98806.13
2022-10-06T19:27:24.509Z,98797.31
2022-10-06T19:29:53.334Z,98791.84
2022-10-06T19:32:22.964Z,98791.56
2022-10-06T19:34:50.947Z,98793.50
2022-10-06T19:37:19.176Z,98802.28
2022-10-06T19:39:48.245Z,98795.53
2022-10-06T19:42:34.575Z,98801.53
2022-10-06T19:45:05.186Z,98800.97
2022-10-06T19:47:33.140Z,98794.06
2022-10-06T19:50:05.969Z,98792.13
2022-10-06T19:52:37.678Z,98796.44
2022-10-06T19:55:06.322Z,98808.53
2022-10-06T19:57:34.298Z,98791.75
2022-10-06T20:00:02.191Z,98794.16
2022-10-06T20:02:37.395Z,98791.31
2022-10-06T20:05:08.332Z,98796.31
2022-10-06T20:07:36.351Z,98799.63
2022-10-06T20:10:04.580Z,98799.28
2022-10-06T20:12:33.797Z,98780.91
2022-10-06T20:15:02.029Z,98784.00
2022-10-06T20:17:31.621Z,98783.28
2022-10-06T20:20:02.139Z,98773.50
2022-10-06T20:22:32.107Z,98787.53
2022-10-06T20:25:02.788Z,98779.81
2022-10-06T20:27:31.705Z,98793.78
2022-10-06T20:29:59.860Z,98799.31
2022-10-06T20:32:27.921Z,98795.75
2022-10-06T20:34:56.213Z,98793.78
2022-10-06T20:37:26.128Z,98795.94
2022-10-06T20:40:11.942Z,98788.16
2022-10-06T20:42:44.880Z,98786.59
2022-10-06T20:45:13.182Z,98794.28
2022-10-06T20:47:41.528Z,98787.09
2022-10-06T20:50:10.329Z,98784.44
2022-10-06T20:52:42.659Z,98790.69
2022-10-06T20:55:10.957Z,98782.91
2022-10-06T20:57:39.425Z,98789.00
2022-10-06T21:00:08.171Z,98796.94
2022-10-06T21:02:36.440Z,98782.34
2022-10-06T21:05:04.797Z,98798.53
2022-10-06T21:07:34.671Z,98782.56
2022-10-06T21:10:04.138Z,98792.34
2022-10-06T21:18:05.810Z,98788.31
2022-10-06T21:20:35.405Z,98804.59
2022-10-06T21:23:04.585Z,98806.66
2022-10-06T21:25:37.029Z,98795.44
2022-10-06T21:28:07.684Z,98782.06
2022-10-06T21:30:36.475Z,98787.59
2022-10-06T21:33:05.454Z,98803.28
2022-10-06T21:35:33.810Z,98791.16
2022-10-06T21:38:03.144Z,98807.03
2022-10-06T21:40:31.590Z,98799.31
2022-10-06T21:43:01.783Z,98801.31
2022-10-06T21:45:33.183Z,98805.72
2022-10-06T21:48:09.098Z,98803.56
2022-10-06T21:50:40.751Z,98806.66
2022-10-06T21:53:09.153Z,98804.56
2022-10-06T21:55:37.336Z,98806.84
2022-10-06T21:58:07.231Z,98806.84
2022-10-06T22:00:35.526Z,98808.06
2022-10-06T22:03:06.586Z,98805.94
2022-10-06T22:05:35.317Z,98819.00
2022-10-06T22:08:03.488Z,98817.09
2022-10-06T22:10:32.683Z,98818.03
2022-10-06T22:13:01.313Z,98823.34
2022-10-06T22:15:31.589Z,98811.47
2022-10-06T22:17:59.939Z,98815.31
2022-10-06T22:20:28.133Z,98817.69
2022-10-06T22:22:59.323Z,98821.09
2022-10-06T22:25:29.669Z,98823.41
2022-10-06T22:27:58.076Z,98830.75
2022-10-06T22:30:26.606Z,98839.91
2022-10-06T22:32:56.240Z,98837.88
2022-10-06T22:35:24.619Z,98834.44
2022-10-06T22:37:53.322Z,98832.81
2022-10-06T22:40:21.967Z,98836.81
2022-10-06T22:42:50.710Z,98851.38
2022-10-06T22:45:19.492Z,98852.44
2022-10-06T22:47:47.927Z,98846.88
2022-10-06T22:50:18.029Z,98845.53
2022-10-06T22:52:46.844Z,98858.22
2022-10-06T22:55:15.019Z,98845.50
2022-10-06T22:57:43.388Z,98855.91
2022-10-06T23:00:12.233Z,98850.59
2022-10-06T23:02:40.632Z,98872.09
2022-10-06T23:05:08.999Z,98854.75
2022-10-06T23:07:38.577Z,98844.56
2022-10-06T23:10:07.380Z,98849.84
2022-10-06T23:12:35.547Z,98842.34
2022-10-06T23:15:03.916Z,98857.59
2022-10-06T23:17:32.766Z,98856.09
2022-10-06T23:20:01.031Z,98841.91
2022-10-06T23:22:30.303Z,98838.84
2022-10-06T23:25:00.101Z,98855.16
2022-10-06T23:27:28.339Z,98865.72
2022-10-06T23:29:57.009Z,98851.47
2022-10-06T23:32:25.237Z,98850.31
2022-10-06T23:34:54.453Z,98852.75
2022-10-06T23:37:23.237Z,98858.31
2022-10-06T23:39:51.679Z,98860.41
2022-10-06T23:42:21.793Z,98863.41
2022-10-06T23:44:50.149Z,98858.03
2022-10-06T23:47:18.379Z,98857.88
2022-10-06T23:49:46.807Z,98905.84
2022-10-06T23:52:15.545Z,98890.72
2022-10-06T23:54:44.640Z,98875.44
2022-10-06T23:57:12.801Z,98892.53
2022-10-06T23:59:42.525Z,98887.09
